Pacific Fantasy — A8MV6 — position and weather

sailwx.info

Track history (hours):
 
Tides and Currents Weather Stations Pressure Air Temp Water Temp Dewpoint Dewpoint Depression Visibility Wind Speed Wind Dir Waves Ship Positions

Pacific Fantasy

Last reported at 2015-May-06 22:30 UTC. Time now 2015-May-06 23:35 UTC.
Position N 31°30' E 121°23'.

Length 180 m; draft 6.5 m.

Type: Cargo ship. MMSI: 636013744.

Date/timePositionNaut miles runAvg speedWind from/ knotsBaromVisibWave heightAir tempDewpointWater temp
2015-May-06 22:30N 31°30' E 121°23'0 0.0
2015-May-06 21:33N 31°30' E 121°23'0 0.0
2015-May-06 20:33N 31°30' E 121°23'0 0.0
2015-May-06 19:33N 31°30' E 121°23'0 0.0
2015-May-06 18:33N 31°30' E 121°23'0 0.0
2015-May-06 17:33N 31°30' E 121°23'0 0.0
2015-May-06 16:30N 31°30' E 121°23'0 0.0
2015-May-06 15:33N 31°30' E 121°23'0 0.0
2015-May-06 14:30N 31°30' E 121°23'0 0.0
2015-May-06 13:30N 31°30' E 121°23'0 0.0
2015-May-06 12:30N 31°30' E 121°23'0 0.0
2015-May-06 11:30N 31°30' E 121°23'0 0.0
2015-May-06 10:32N 31°30' E 121°23'0 0.0
2015-May-06 09:32N 31°30' E 121°23'0 0.0
2015-May-06 08:32N 31°30' E 121°23'0 0.0
2015-May-06 07:32N 31°30' E 121°23'0 0.0
2015-May-06 06:32N 31°30' E 121°23'0 0.0
2015-May-06 05:26N 31°30' E 121°23'1 0.6
2015-May-06 04:34N 31°30' E 121°24'10 9.9
2015-May-06 03:33N 31°24' E 121°33'1111.5
2015-May-06 02:33N 31°19' E 121°45'1212.0
2015-May-06 01:33N 31°15' E 121°58'1110.7
2015-May-06 00:33N 31°11' E 122°10'1210.5
2015-May-05 23:24N 31°07' E 122°23'6 7.1
2015-May-05 22:33N 31°09' E 122°30'9 9.1
2015-May-05 21:33N 31°13' E 122°39'2 2.0
2015-May-05 20:31N 31°14' E 122°42'0 0.1
2015-May-05 19:22N 31°14' E 122°41'0 0.0
2015-May-05 18:31N 31°14' E 122°41'0 0.1
2015-May-05 17:28N 31°14' E 122°41'4 4.4
2015-May-05 16:33N 31°17' E 122°40'9 9.1
2015-May-05 15:33N 31°26' E 122°36'9 8.9
2015-May-05 14:33N 31°35' E 122°36'10 9.9
2015-May-05 13:33N 31°45' E 122°36'1111.1
2015-May-05 12:33N 31°56' E 122°35'1212.1
2015-May-05 11:33N 32°08' E 122°35'1312.6
2015-May-05 10:33N 32°20' E 122°36'1211.7
2015-May-05 09:33N 32°32' E 122°36'1111.4
2015-May-05 08:33N 32°44' E 122°36'1110.6
2015-May-05 07:33N 32°54' E 122°36'1010.0
2015-May-05 06:33N 33°04' E 122°36'1010.0
2015-May-05 05:32N 33°14' E 122°35'10 9.9
2015-May-05 04:33N 33°24' E 122°35'1210.7
2015-May-05 03:29N 33°36' E 122°37'1111.7
2015-May-05 02:33N 33°46' E 122°37'2512.2
2015-May-05 00:32N 34°11' E 122°38'1212.1
2015-May-04 23:33N 34°23' E 122°39'1212.1
2015-May-04 22:33N 34°35' E 122°38'8810.9
2015-May-04 14:29N 36°03' E 122°45'4510.9
2015-May-04 10:18N 36°48' E 122°45'810.2
2015-May-04 09:30N 36°56' E 122°46'2510.9
2015-May-04 07:12N 37°21' E 122°47'812.0
2015-May-04 06:33N 37°29' E 122°43'1212.2
2015-May-04 05:33N 37°35' E 122°30'1212.2
2015-May-04 04:33N 37°39' E 122°16'1111.4
2015-May-04 03:33N 37°41' E 122°02'1111.3
2015-May-04 02:33N 37°40' E 121°47'9 9.5
2015-May-04 01:33N 37°39' E 121°35'1010.2
2015-May-04 00:33N 37°34' E 121°24'1 1.3
2015-May-03 23:33N 37°34' E 121°23'0 0.0
2015-May-03 22:33N 37°34' E 121°23'0 0.0
2015-May-03 21:33N 37°34' E 121°23'0 0.0
2015-May-03 20:33N 37°34' E 121°23'0 0.0
2015-May-03 19:33N 37°34' E 121°23'0 0.0
2015-May-03 18:33N 37°34' E 121°23'0 0.0
2015-May-03 17:33N 37°34' E 121°23'0 0.0
2015-May-03 16:33N 37°34' E 121°23'0 0.0
2015-May-03 15:33N 37°34' E 121°23'0 0.0
2015-May-03 14:33N 37°34' E 121°23'0 0.0
2015-May-03 13:33N 37°34' E 121°23'0 0.0
2015-May-03 12:33N 37°34' E 121°23'0 0.0
2015-May-03 11:33N 37°34' E 121°23'0 0.0
2015-May-03 10:33N 37°34' E 121°23'0 0.0
2015-May-03 09:33N 37°34' E 121°23'0 0.0
2015-May-03 08:33N 37°34' E 121°23'0 0.0
2015-May-03 07:33N 37°34' E 121°23'0 0.0
2015-May-03 06:33N 37°34' E 121°23'0 0.0
2015-May-03 05:30N 37°34' E 121°23'0 0.0
2015-May-03 04:30N 37°34' E 121°23'0 0.0
2015-May-03 03:27N 37°34' E 121°23'0 0.0
2015-May-03 02:27N 37°34' E 121°23'0 0.1
2015-May-03 01:33N 37°34' E 121°23'0 0.0
2015-May-03 00:32N 37°34' E 121°23'0 0.0
2015-May-02 23:33N 37°34' E 121°23'0 0.0
2015-May-02 22:32N 37°34' E 121°23'0 0.0
2015-May-02 21:32N 37°34' E 121°23'0 0.0
2015-May-02 20:32N 37°34' E 121°23'0 0.0
2015-May-02 19:32N 37°34' E 121°23'0 0.0
2015-May-02 18:32N 37°34' E 121°23'0 0.0
2015-May-02 17:32N 37°34' E 121°23'0 0.0
2015-May-02 16:32N 37°34' E 121°23'0 0.0
2015-May-02 15:32N 37°34' E 121°23'0 0.0
2015-May-02 14:32N 37°34' E 121°23'0 0.0
2015-May-02 13:32N 37°34' E 121°23'0 0.0
2015-May-02 12:32N 37°34' E 121°23'0 0.0
2015-May-02 11:32N 37°34' E 121°23'0 0.0
2015-May-02 10:32N 37°34' E 121°23'0 0.1
2015-May-02 09:32N 37°34' E 121°23'0 0.0
2015-May-02 08:32N 37°34' E 121°23'0 0.0
2015-May-02 07:32N 37°34' E 121°23'0 0.0
2015-May-02 06:32N 37°34' E 121°23'0 0.0
2015-May-02 05:32N 37°34' E 121°23'0 0.0
2015-May-02 04:32N 37°34' E 121°23'0 0.0
2015-May-02 03:32N 37°34' E 121°23'0 0.0
2015-May-02 02:32N 37°34' E 121°23'0 0.0
2015-May-02 01:32N 37°34' E 121°23'0 0.0
2015-May-02 00:32N 37°34' E 121°23'0 0.0
2015-May-01 23:32N 37°34' E 121°23'0 0.0
2015-May-01 22:32N 37°34' E 121°23'0 0.0
2015-May-01 21:32N 37°34' E 121°23'0 0.0
2015-May-01 20:32N 37°34' E 121°23'0 0.0
2015-May-01 19:32N 37°34' E 121°23'0 0.0
2015-May-01 18:32N 37°34' E 121°23'3 3.0
2015-May-01 17:33N 37°35' E 121°26'9 8.8
2015-May-01 16:33N 37°40' E 121°35'1110.8
2015-May-01 15:33N 37°42' E 121°49'1110.8
2015-May-01 14:30N 37°44' E 122°03'1410.8
2015-May-01 13:13N 37°43' E 122°20'810.8
2015-May-01 12:27N 37°41' E 122°31'  
Track history (hours):
 
Tides and Currents Weather Stations Pressure Air Temp Water Temp Dewpoint Dewpoint Depression Visibility Wind Speed Wind Dir Waves Ship Positions

Pacific Fantasy

Last reported at 2015-May-06 22:30 UTC. Time now 2015-May-06 23:35 UTC.
Position N 31°30' E 121°23'.

Length 180 m; draft 6.5 m.

Type: Cargo ship. MMSI: 636013744.

Date/timePositionNaut miles runAvg speedWind from/ knotsBaromVisibWave heightAir tempDewpointWater temp
2015-May-06 22:30N 31°30' E 121°23'0 0.0
2015-May-06 21:33N 31°30' E 121°23'0 0.0
2015-May-06 20:33N 31°30' E 121°23'0 0.0
2015-May-06 19:33N 31°30' E 121°23'0 0.0
2015-May-06 18:33N 31°30' E 121°23'0 0.0
2015-May-06 17:33N 31°30' E 121°23'0 0.0
2015-May-06 16:30N 31°30' E 121°23'0 0.0
2015-May-06 15:33N 31°30' E 121°23'0 0.0
2015-May-06 14:30N 31°30' E 121°23'0 0.0
2015-May-06 13:30N 31°30' E 121°23'0 0.0
2015-May-06 12:30N 31°30' E 121°23'0 0.0
2015-May-06 11:30N 31°30' E 121°23'0 0.0
2015-May-06 10:32N 31°30' E 121°23'0 0.0
2015-May-06 09:32N 31°30' E 121°23'0 0.0
2015-May-06 08:32N 31°30' E 121°23'0 0.0
2015-May-06 07:32N 31°30' E 121°23'0 0.0
2015-May-06 06:32N 31°30' E 121°23'0 0.0
2015-May-06 05:26N 31°30' E 121°23'1 0.6
2015-May-06 04:34N 31°30' E 121°24'10 9.9
2015-May-06 03:33N 31°24' E 121°33'1111.5
2015-May-06 02:33N 31°19' E 121°45'1212.0
2015-May-06 01:33N 31°15' E 121°58'1110.7
2015-May-06 00:33N 31°11' E 122°10'1210.5
2015-May-05 23:24N 31°07' E 122°23'6 7.1
2015-May-05 22:33N 31°09' E 122°30'9 9.1
2015-May-05 21:33N 31°13' E 122°39'2 2.0
2015-May-05 20:31N 31°14' E 122°42'0 0.1
2015-May-05 19:22N 31°14' E 122°41'0 0.0
2015-May-05 18:31N 31°14' E 122°41'0 0.1
2015-May-05 17:28N 31°14' E 122°41'4 4.4
2015-May-05 16:33N 31°17' E 122°40'9 9.1
2015-May-05 15:33N 31°26' E 122°36'9 8.9
2015-May-05 14:33N 31°35' E 122°36'10 9.9
2015-May-05 13:33N 31°45' E 122°36'1111.1
2015-May-05 12:33N 31°56' E 122°35'1212.1
2015-May-05 11:33N 32°08' E 122°35'1312.6
2015-May-05 10:33N 32°20' E 122°36'1211.7
2015-May-05 09:33N 32°32' E 122°36'1111.4
2015-May-05 08:33N 32°44' E 122°36'1110.6
2015-May-05 07:33N 32°54' E 122°36'1010.0
2015-May-05 06:33N 33°04' E 122°36'1010.0
2015-May-05 05:32N 33°14' E 122°35'10 9.9
2015-May-05 04:33N 33°24' E 122°35'1210.7
2015-May-05 03:29N 33°36' E 122°37'1111.7
2015-May-05 02:33N 33°46' E 122°37'2512.2
2015-May-05 00:32N 34°11' E 122°38'1212.1
2015-May-04 23:33N 34°23' E 122°39'1212.1
2015-May-04 22:33N 34°35' E 122°38'8810.9
2015-May-04 14:29N 36°03' E 122°45'4510.9
2015-May-04 10:18N 36°48' E 122°45'810.2
2015-May-04 09:30N 36°56' E 122°46'2510.9
2015-May-04 07:12N 37°21' E 122°47'812.0
2015-May-04 06:33N 37°29' E 122°43'1212.2
2015-May-04 05:33N 37°35' E 122°30'1212.2
2015-May-04 04:33N 37°39' E 122°16'1111.4
2015-May-04 03:33N 37°41' E 122°02'1111.3
2015-May-04 02:33N 37°40' E 121°47'9 9.5
2015-May-04 01:33N 37°39' E 121°35'1010.2
2015-May-04 00:33N 37°34' E 121°24'1 1.3
2015-May-03 23:33N 37°34' E 121°23'0 0.0
2015-May-03 22:33N 37°34' E 121°23'0 0.0
2015-May-03 21:33N 37°34' E 121°23'0 0.0
2015-May-03 20:33N 37°34' E 121°23'0 0.0
2015-May-03 19:33N 37°34' E 121°23'0 0.0
2015-May-03 18:33N 37°34' E 121°23'0 0.0
2015-May-03 17:33N 37°34' E 121°23'0 0.0
2015-May-03 16:33N 37°34' E 121°23'0 0.0
2015-May-03 15:33N 37°34' E 121°23'0 0.0
2015-May-03 14:33N 37°34' E 121°23'0 0.0
2015-May-03 13:33N 37°34' E 121°23'0 0.0
2015-May-03 12:33N 37°34' E 121°23'0 0.0
2015-May-03 11:33N 37°34' E 121°23'0 0.0
2015-May-03 10:33N 37°34' E 121°23'0 0.0
2015-May-03 09:33N 37°34' E 121°23'0 0.0
2015-May-03 08:33N 37°34' E 121°23'0 0.0
2015-May-03 07:33N 37°34' E 121°23'0 0.0
2015-May-03 06:33N 37°34' E 121°23'0 0.0
2015-May-03 05:30N 37°34' E 121°23'0 0.0
2015-May-03 04:30N 37°34' E 121°23'0 0.0
2015-May-03 03:27N 37°34' E 121°23'0 0.0
2015-May-03 02:27N 37°34' E 121°23'0 0.1
2015-May-03 01:33N 37°34' E 121°23'0 0.0
2015-May-03 00:32N 37°34' E 121°23'0 0.0
2015-May-02 23:33N 37°34' E 121°23'0 0.0
2015-May-02 22:32N 37°34' E 121°23'0 0.0
2015-May-02 21:32N 37°34' E 121°23'0 0.0
2015-May-02 20:32N 37°34' E 121°23'0 0.0
2015-May-02 19:32N 37°34' E 121°23'0 0.0
2015-May-02 18:32N 37°34' E 121°23'0 0.0
2015-May-02 17:32N 37°34' E 121°23'0 0.0
2015-May-02 16:32N 37°34' E 121°23'0 0.0
2015-May-02 15:32N 37°34' E 121°23'0 0.0
2015-May-02 14:32N 37°34' E 121°23'0 0.0
2015-May-02 13:32N 37°34' E 121°23'0 0.0
2015-May-02 12:32N 37°34' E 121°23'0 0.0
2015-May-02 11:32N 37°34' E 121°23'0 0.0
2015-May-02 10:32N 37°34' E 121°23'0 0.1
2015-May-02 09:32N 37°34' E 121°23'0 0.0
2015-May-02 08:32N 37°34' E 121°23'0 0.0
2015-May-02 07:32N 37°34' E 121°23'0 0.0
2015-May-02 06:32N 37°34' E 121°23'0 0.0
2015-May-02 05:32N 37°34' E 121°23'0 0.0
2015-May-02 04:32N 37°34' E 121°23'0 0.0
2015-May-02 03:32N 37°34' E 121°23'0 0.0
2015-May-02 02:32N 37°34' E 121°23'0 0.0
2015-May-02 01:32N 37°34' E 121°23'0 0.0
2015-May-02 00:32N 37°34' E 121°23'0 0.0
2015-May-01 23:32N 37°34' E 121°23'0 0.0
2015-May-01 22:32N 37°34' E 121°23'0 0.0
2015-May-01 21:32N 37°34' E 121°23'0 0.0
2015-May-01 20:32N 37°34' E 121°23'0 0.0
2015-May-01 19:32N 37°34' E 121°23'0 0.0
2015-May-01 18:32N 37°34' E 121°23'3 3.0
2015-May-01 17:33N 37°35' E 121°26'9 8.8
2015-May-01 16:33N 37°40' E 121°35'1110.8
2015-May-01 15:33N 37°42' E 121°49'1110.8
2015-May-01 14:30N 37°44' E 122°03'1410.8
2015-May-01 13:13N 37°43' E 122°20'810.8
2015-May-01 12:27N 37°41' E 122°31'  

Dump ship's entire track history